createdAt,value
2018-09-04T00:00:36.618Z,0
2018-09-04T00:01:37.159Z,0
2018-09-04T00:02:37.183Z,0
2018-09-04T00:03:36.950Z,0
2018-09-04T00:04:37.240Z,0
2018-09-04T00:05:36.997Z,0
2018-09-04T00:06:37.277Z,0
2018-09-04T00:07:37.313Z,0
2018-09-04T00:08:36.815Z,0
2018-09-04T00:10:37.375Z,0
2018-09-04T00:11:37.141Z,0
2018-09-04T00:12:37.163Z,0
2018-09-04T00:13:52.106Z,0
2018-09-04T00:14:37.213Z,0
2018-09-04T00:15:37.234Z,0
2018-09-04T00:16:37.003Z,0
2018-09-04T00:17:51.946Z,0
2018-09-04T00:18:37.562Z,0
2018-09-04T00:19:37.588Z,0
2018-09-04T00:20:52.272Z,0
2018-09-04T00:21:37.641Z,0
2018-09-04T00:22:37.145Z,0
2018-09-04T00:23:37.688Z,0
2018-09-04T00:24:37.705Z,0
2018-09-04T00:26:52.417Z,0
2018-09-04T00:27:37.775Z,0
2018-09-04T00:28:37.802Z,0
2018-09-04T00:29:37.576Z,0
2018-09-04T00:30:37.855Z,0
2018-09-04T00:31:37.613Z,0
2018-09-04T00:32:37.638Z,0
2018-09-04T00:33:52.337Z,0
2018-09-04T00:34:38.257Z,0
2018-09-04T00:35:37.454Z,0
2018-09-04T00:36:37.994Z,0
2018-09-04T00:37:52.731Z,0
2018-09-04T00:38:37.783Z,0
2018-09-04T00:39:38.061Z,0
2018-09-04T00:40:38.087Z,0
2018-09-04T00:41:38.118Z,0
2018-09-04T00:42:38.133Z,0
2018-09-04T00:43:37.901Z,0
2018-09-04T00:44:38.283Z,0
2018-09-04T00:45:38.262Z,0
2018-09-04T00:46:38.232Z,0
2018-09-04T00:47:38.250Z,0
2018-09-04T00:48:38.277Z,0
2018-09-04T00:49:52.718Z,0
2018-09-04T00:50:38.375Z,0
2018-09-04T00:51:53.010Z,0
2018-09-04T00:52:38.375Z,0
2018-09-04T00:53:38.392Z,0
2018-09-04T00:54:38.424Z,0
2018-09-04T00:55:38.450Z,0
2018-09-04T00:56:38.472Z,0
2018-09-04T00:57:53.152Z,0
2018-09-04T00:58:53.270Z,0
2018-09-04T00:59:38.281Z,0
2018-09-04T01:00:38.571Z,0
2018-09-04T01:01:38.584Z,0
2018-09-04T01:02:38.633Z,0
2018-09-04T01:03:38.634Z,0
2018-09-04T01:04:38.398Z,0
2018-09-04T01:05:53.339Z,0
2018-09-04T01:06:38.708Z,0
2018-09-04T01:07:53.440Z,0
2018-09-04T01:08:38.493Z,0
2018-09-04T01:09:38.775Z,0
2018-09-04T01:10:38.797Z,0
2018-09-04T01:11:38.827Z,0
2018-09-04T01:13:53.275Z,0
2018-09-04T01:14:53.560Z,0
2018-09-04T01:15:38.917Z,0
2018-09-04T01:16:38.427Z,0
2018-09-04T01:17:38.964Z,0
2018-09-04T01:18:38.987Z,0
2018-09-04T01:19:38.499Z,0
2018-09-04T01:20:53.181Z,0
2018-09-04T01:21:38.549Z,0
2018-09-04T01:22:38.824Z,0
2018-09-04T01:23:39.107Z,0
2018-09-04T01:24:39.134Z,0
2018-09-04T01:26:39.180Z,0
2018-09-04T01:27:39.201Z,0
2018-09-04T01:28:38.970Z,0
2018-09-04T01:29:39.263Z,0
2018-09-04T01:30:53.421Z,0
2018-09-04T01:31:53.699Z,0
2018-09-04T01:33:39.345Z,0
2018-09-04T01:34:54.033Z,0
2018-09-04T01:35:39.395Z,0
2018-09-04T01:36:39.519Z,0
2018-09-04T01:37:39.443Z,0
2018-09-04T01:38:39.459Z,0
2018-09-04T01:39:39.488Z,0
2018-09-04T01:40:39.507Z,0
2018-09-04T01:41:39.275Z,0
2018-09-04T01:42:39.558Z,0
2018-09-04T01:43:39.579Z,0
2018-09-04T01:44:39.352Z,0
2018-09-04T01:45:39.372Z,0
2018-09-04T01:46:54.313Z,0
2018-09-04T01:47:39.674Z,0
2018-09-04T01:48:39.696Z,0
2018-09-04T01:49:39.466Z,0
2018-09-04T01:50:39.744Z,0
2018-09-04T01:51:39.769Z,0
2018-09-04T01:52:54.454Z,0
2018-09-04T01:53:39.819Z,0
2018-09-04T01:54:39.578Z,0
2018-09-04T01:55:54.265Z,0
2018-09-04T01:56:39.366Z,0
2018-09-04T01:57:39.973Z,0
2018-09-04T01:58:39.934Z,0
2018-09-04T02:00:39.978Z,0
2018-09-04T02:01:40.008Z,0
2018-09-04T02:02:40.031Z,0
2018-09-04T02:03:40.048Z,0
2018-09-04T02:04:40.071Z,0
2018-09-04T02:05:40.099Z,0
2018-09-04T02:06:39.862Z,0
2018-09-04T02:07:39.884Z,0
2018-09-04T02:08:54.826Z,0
2018-09-04T02:09:40.192Z,0
2018-09-04T02:10:40.212Z,0
2018-09-04T02:11:40.237Z,0
2018-09-04T02:12:40.262Z,0
2018-09-04T02:13:40.023Z,0
2018-09-04T02:14:39.788Z,0
2018-09-04T02:15:40.331Z,0
2018-09-04T02:16:40.355Z,0
2018-09-04T02:17:40.120Z,0
2018-09-04T02:18:55.063Z,0
2018-09-04T02:19:40.428Z,0
2018-09-04T02:20:40.193Z,0
2018-09-04T02:21:40.481Z,0
2018-09-04T02:22:40.503Z,0
2018-09-04T02:23:40.261Z,0
2018-09-04T02:24:55.202Z,0
2018-09-04T02:25:55.227Z,0
2018-09-04T02:26:40.589Z,0
2018-09-04T02:27:55.017Z,0
2018-09-04T02:28:40.640Z,0
2018-09-04T02:29:40.402Z,0
2018-09-04T02:30:40.179Z,0
2018-09-04T02:31:40.713Z,0
2018-09-04T02:32:40.731Z,0
2018-09-04T02:33:40.756Z,0
2018-09-04T02:34:40.525Z,0
2018-09-04T02:35:40.809Z,0
2018-09-04T02:36:40.841Z,0
2018-09-04T02:37:40.600Z,0
2018-09-04T02:38:40.353Z,0
2018-09-04T02:39:40.890Z,0
2018-09-04T02:40:55.318Z,0
2018-09-04T02:41:55.601Z,0
2018-09-04T02:42:40.966Z,0
2018-09-04T02:43:40.986Z,0
2018-09-04T02:44:41.008Z,0
2018-09-04T02:45:40.776Z,0
2018-09-04T02:46:55.767Z,0
2018-09-04T02:47:55.740Z,0
2018-09-04T02:48:41.109Z,0
2018-09-04T02:49:41.230Z,0
2018-09-04T02:50:41.147Z,0
2018-09-04T02:51:41.175Z,0
2018-09-04T02:52:41.203Z,0
2018-09-04T02:53:40.967Z,0
2018-09-04T02:54:41.242Z,0
2018-09-04T02:55:55.673Z,0
2018-09-04T02:56:41.288Z,0
2018-09-04T02:57:41.312Z,0
2018-09-04T02:58:41.332Z,0
2018-09-04T02:59:41.104Z,0
2018-09-04T03:00:56.041Z,0
2018-09-04T03:01:41.406Z,0
2018-09-04T03:02:41.431Z,0
2018-09-04T03:03:41.453Z,0
2018-09-04T03:04:41.475Z,0
2018-09-04T03:05:55.902Z,0
2018-09-04T03:06:41.518Z,0
2018-09-04T03:07:41.560Z,0
2018-09-04T03:08:41.055Z,0
2018-09-04T03:09:41.075Z,0
2018-09-04T03:10:41.630Z,0
2018-09-04T03:11:41.642Z,0
2018-09-04T03:13:41.850Z,0
2018-09-04T03:14:56.400Z,0
2018-09-04T03:15:41.480Z,0
2018-09-04T03:16:41.240Z,0
2018-09-04T03:17:41.268Z,0
2018-09-04T03:18:41.803Z,0
2018-09-04T03:19:41.826Z,0
2018-09-04T03:20:41.845Z,0
2018-09-04T03:21:41.868Z,0
2018-09-04T03:22:41.636Z,0
2018-09-04T03:23:41.698Z,0
2018-09-04T03:24:41.945Z,0
2018-09-04T03:25:41.996Z,0
2018-09-04T03:26:41.986Z,0
2018-09-04T03:28:42.031Z,0
2018-09-04T03:29:41.798Z,0
2018-09-04T03:30:42.083Z,0
2018-09-04T03:31:42.126Z,0
2018-09-04T03:32:42.125Z,0
2018-09-04T03:33:41.893Z,0
2018-09-04T03:34:42.173Z,0
2018-09-04T03:35:41.941Z,0
2018-09-04T03:36:42.226Z,0
2018-09-04T03:37:41.982Z,0
2018-09-04T03:38:42.003Z,0
2018-09-04T03:39:42.032Z,0
2018-09-04T03:40:42.320Z,0
2018-09-04T03:41:42.079Z,0
2018-09-04T03:42:57.020Z,0
2018-09-04T03:43:57.042Z,0
2018-09-04T03:44:42.148Z,0
2018-09-04T03:45:41.912Z,0
2018-09-04T03:46:42.464Z,4
2018-09-04T03:47:42.472Z,4
2018-09-04T03:49:42.523Z,0
2018-09-04T03:50:42.553Z,4
2018-09-04T03:51:57.229Z,4
2018-09-04T03:53:42.632Z,4
2018-09-04T03:54:42.384Z,4
2018-09-04T03:55:42.662Z,4
2018-09-04T03:56:42.165Z,8
2018-09-04T03:57:42.704Z,8
2018-09-04T03:58:42.799Z,12
2018-09-04T03:59:57.161Z,12
2018-09-04T04:00:42.527Z,16
2018-09-04T04:01:42.964Z,20
2018-09-04T04:02:42.562Z,24
2018-09-04T04:03:42.587Z,24
2018-09-04T04:05:42.889Z,36
2018-09-04T04:06:42.666Z,40
2018-09-04T04:07:42.683Z,48
2018-09-04T04:08:42.699Z,52
2018-09-04T04:09:42.983Z,56
2018-09-04T04:10:42.757Z,60
2018-09-04T04:11:42.773Z,68
2018-09-04T04:12:43.051Z,80
2018-09-04T04:13:42.821Z,88
2018-09-04T04:14:43.108Z,100
2018-09-04T04:15:57.521Z,124
2018-09-04T04:16:42.894Z,140
2018-09-04T04:17:43.167Z,164
2018-09-04T04:18:57.850Z,192
2018-09-04T04:19:43.212Z,216
2018-09-04T04:20:43.236Z,248
2018-09-04T04:21:43.258Z,280
2018-09-04T04:22:43.284Z,316
2018-09-04T04:23:43.065Z,348
2018-09-04T04:24:43.337Z,388
2018-09-04T04:25:58.016Z,444
2018-09-04T04:26:43.116Z,484
2018-09-04T04:27:43.398Z,536
2018-09-04T04:28:43.433Z,592
2018-09-04T04:29:43.443Z,652
2018-09-04T04:30:58.130Z,740
2018-09-04T04:31:43.492Z,796
2018-09-04T04:32:58.180Z,892
2018-09-04T04:33:43.278Z,952
2018-09-04T04:34:43.559Z,1024
2018-09-04T04:35:43.586Z,1096
2018-09-04T04:36:58.274Z,1188
2018-09-04T04:39:43.417Z,1384
2018-09-04T04:41:43.730Z,1528
2018-09-04T04:42:43.751Z,1604
2018-09-04T04:43:43.768Z,1688
2018-09-04T04:44:43.798Z,1768
2018-09-04T04:45:43.817Z,1852
2018-09-04T04:46:58.244Z,1960
2018-09-04T04:47:43.988Z,2028
2018-09-04T04:48:58.546Z,2144
2018-09-04T04:49:43.907Z,2220
2018-09-04T04:50:43.929Z,2328
2018-09-04T04:51:43.698Z,2440
2018-09-04T04:52:43.975Z,2564
2018-09-04T04:53:43.487Z,2704
2018-09-04T04:54:44.028Z,2848
2018-09-04T04:55:44.056Z,2992
2018-09-04T04:56:58.471Z,3160
2018-09-04T04:57:44.099Z,3276
2018-09-04T04:58:58.773Z,3928
2018-09-04T04:59:44.137Z,4460
2018-09-04T05:00:43.910Z,4428
2018-09-04T05:01:43.928Z,3968
2018-09-04T05:03:13.531Z,4016
2018-09-04T05:03:58.634Z,4112
2018-09-04T05:05:58.680Z,4344
2018-09-04T05:06:44.045Z,4460
2018-09-04T05:07:58.468Z,4668
2018-09-04T05:08:44.503Z,4796
2018-09-04T05:09:44.375Z,4976
2018-09-04T05:10:44.390Z,5160
2018-09-04T05:11:44.619Z,5328
2018-09-04T05:12:44.440Z,5488
2018-09-04T05:13:44.463Z,5672
2018-09-04T05:14:43.996Z,5880
2018-09-04T05:15:44.523Z,6452
2018-09-04T05:16:44.532Z,7992
2018-09-04T05:17:44.300Z,6732
2018-09-04T05:18:59.242Z,6828
2018-09-04T05:19:44.601Z,7044
2018-09-04T05:21:44.655Z,8784
2018-09-04T05:22:45.100Z,9796
2018-09-04T05:23:44.740Z,8072
2018-09-04T05:24:44.718Z,7920
2018-09-04T05:25:44.740Z,8052
2018-09-04T05:26:44.510Z,8164
2018-09-04T05:27:44.530Z,8300
2018-09-04T05:28:44.808Z,8444
2018-09-04T05:29:44.629Z,8572
2018-09-04T05:30:44.865Z,8688
2018-09-04T05:32:44.390Z,9240
2018-09-04T05:33:44.427Z,10784
2018-09-04T05:34:59.712Z,10460
2018-09-04T05:35:44.981Z,10152
2018-09-04T05:36:45.316Z,10440
2018-09-04T05:37:45.031Z,19136
2018-09-04T05:38:45.055Z,22944
2018-09-04T05:39:45.075Z,16064
2018-09-04T05:40:44.845Z,12912
2018-09-04T05:41:45.129Z,11968
2018-09-04T05:42:45.149Z,9864
2018-09-04T05:43:59.836Z,10440
2018-09-04T05:44:44.682Z,11016
2018-09-04T05:45:59.622Z,11504
2018-09-04T05:46:45.237Z,11540
2018-09-04T05:47:45.257Z,11944
2018-09-04T05:48:45.030Z,10052
2018-09-04T05:49:45.310Z,10872
2018-09-04T05:50:59.997Z,17312
2018-09-04T05:51:45.358Z,20832
2018-09-04T05:52:59.791Z,26304
2018-09-04T05:53:44.893Z,32608
2018-09-04T05:54:45.431Z,36416
2018-09-04T05:55:45.452Z,36480
2018-09-04T05:57:45.245Z,30624
2018-09-04T05:58:44.762Z,27008
2018-09-04T05:59:45.569Z,25632
2018-09-04T06:00:45.337Z,23744
2018-09-04T06:01:45.605Z,21824
2018-09-04T06:02:45.371Z,19968
2018-09-04T06:03:45.665Z,18944
2018-09-04T06:04:45.421Z,18208
2018-09-04T06:06:00.685Z,18368
2018-09-04T06:06:45.216Z,18912
2018-09-04T06:07:45.501Z,19168
2018-09-04T06:08:45.777Z,18784
2018-09-04T06:09:45.550Z,18304
2018-09-04T06:10:45.579Z,17760
2018-09-04T06:11:45.608Z,16896
2018-09-04T06:12:45.892Z,16032
2018-09-04T06:13:45.960Z,15520
2018-09-04T06:14:45.680Z,15052
2018-09-04T06:15:45.720Z,15064
2018-09-04T06:16:45.728Z,15520
2018-09-04T06:17:45.750Z,15776
2018-09-04T06:18:45.258Z,16064
2018-09-04T06:20:00.535Z,16224
2018-09-04T06:20:46.088Z,16160
2018-09-04T06:21:45.852Z,15664
2018-09-04T06:22:46.136Z,15208
2018-09-04T06:23:45.900Z,14884
2018-09-04T06:24:46.196Z,14908
2018-09-04T06:25:46.260Z,15312
2018-09-04T06:26:46.232Z,15940
2018-09-04T06:27:46.004Z,16960
2018-09-04T06:28:45.780Z,18048
2018-09-04T06:29:46.259Z,19136
2018-09-04T06:30:46.332Z,20160
2018-09-04T06:31:46.460Z,21248
2018-09-04T06:32:46.384Z,22208
2018-09-04T06:33:46.153Z,22432
2018-09-04T06:34:46.437Z,22496
2018-09-04T06:35:46.457Z,22496
2018-09-04T06:37:01.239Z,22400
2018-09-04T06:38:01.177Z,22688
2018-09-04T06:38:46.538Z,22880
2018-09-04T06:39:46.561Z,22816
2018-09-04T06:40:46.591Z,22560
2018-09-04T06:41:46.618Z,22240
2018-09-04T06:42:46.673Z,22944
2018-09-04T06:44:46.686Z,24896
2018-09-04T06:45:46.452Z,25152
2018-09-04T06:46:46.679Z,25312
2018-09-04T06:47:46.761Z,24864
2018-09-04T06:48:46.538Z,24352
2018-09-04T06:49:46.814Z,24160
2018-09-04T06:50:46.853Z,23936
2018-09-04T06:51:46.878Z,23488
2018-09-04T06:52:46.890Z,23616
2018-09-04T06:54:01.574Z,24960
2018-09-04T06:55:01.842Z,26400
2018-09-04T06:55:46.967Z,27104
2018-09-04T06:56:46.746Z,28064
2018-09-04T06:57:47.272Z,29280
2018-09-04T06:58:46.786Z,29952
2018-09-04T06:59:47.109Z,31392
2018-09-04T07:00:47.102Z,32672
2018-09-04T07:01:47.127Z,33568
2018-09-04T07:02:47.206Z,33792
2018-09-04T07:03:47.169Z,34624
2018-09-04T07:04:47.203Z,37120
2018-09-04T07:05:47.235Z,40320
2018-09-04T07:06:47.252Z,42752
2018-09-04T07:07:47.273Z,43264
2018-09-04T07:08:47.046Z,43040
2018-09-04T07:10:01.991Z,44256
2018-09-04T07:10:47.355Z,45824
2018-09-04T07:13:02.068Z,52192
2018-09-04T07:13:47.184Z,54976
2018-09-04T07:15:01.887Z,56288
2018-09-04T07:15:47.234Z,55232
2018-09-04T07:16:47.267Z,56544
2018-09-04T07:17:47.546Z,56032
2018-09-04T07:19:02.245Z,56000
2018-09-04T07:19:47.605Z,57952
2018-09-04T07:20:47.636Z,59296
2018-09-04T07:21:47.656Z,60384
2018-09-04T07:22:47.697Z,59296
2018-09-04T07:23:47.200Z,59392
2018-09-04T07:24:47.235Z,59520
2018-09-04T07:26:02.442Z,61120
2018-09-04T07:26:47.547Z,61536
2018-09-04T07:27:47.861Z,61344
2018-09-04T07:29:02.524Z,60832
2018-09-04T07:30:02.562Z,63872
2018-09-04T07:30:47.672Z,64576
2018-09-04T07:31:47.958Z,63424
2018-09-04T07:32:47.983Z,61696
2018-09-04T07:33:48.019Z,63264
2018-09-04T07:34:47.786Z,65920
2018-09-04T07:36:02.737Z,62592
2018-09-04T07:36:48.105Z,63200
2018-09-04T07:37:47.877Z,67584
2018-09-04T07:38:48.167Z,65984
2018-09-04T07:39:48.197Z,63200
2018-09-04T07:41:02.897Z,59552
2018-09-04T07:41:48.313Z,60576
2018-09-04T07:42:47.780Z,60544
2018-09-04T07:44:48.351Z,62880
2018-09-04T07:45:48.395Z,64736
2018-09-04T07:46:48.425Z,62176
2018-09-04T07:47:48.185Z,58848
2018-09-04T07:48:48.483Z,57440
2018-09-04T07:49:48.250Z,58784
2018-09-04T07:50:48.544Z,61664
2018-09-04T07:51:48.318Z,62272
2018-09-04T07:52:48.354Z,62496
2018-09-04T07:53:48.958Z,61504
2018-09-04T07:54:48.413Z,60192
2018-09-04T07:55:48.709Z,59072
2018-09-04T07:56:48.474Z,58784
2018-09-04T07:57:48.506Z,60352
2018-09-04T07:58:48.540Z,60032
2018-09-04T07:59:48.833Z,60576
2018-09-04T08:01:03.364Z,58304
2018-09-04T08:01:48.638Z,59520
2018-09-04T08:02:48.927Z,56064
2018-09-04T08:03:48.963Z,52640
2018-09-04T08:04:48.985Z,52256
2018-09-04T08:05:49.020Z,54048
2018-09-04T08:06:49.058Z,57280
2018-09-04T08:07:48.823Z,56384
2018-09-04T08:08:49.211Z,57152
2018-09-04T08:09:48.895Z,54624
2018-09-04T08:10:48.658Z,56736
2018-09-04T08:11:49.274Z,56864
2018-09-04T08:13:03.905Z,56480
2018-09-04T08:13:49.275Z,56352
2018-09-04T08:14:49.049Z,52768
2018-09-04T08:15:49.334Z,53024
2018-09-04T08:16:49.372Z,52736
2018-09-04T08:17:49.251Z,50784
2018-09-04T08:18:49.448Z,49920
2018-09-04T08:19:49.245Z,48448
2018-09-04T08:20:49.773Z,46560
2018-09-04T08:21:49.532Z,45920
2018-09-04T08:23:03.965Z,45504
2018-09-04T08:24:04.043Z,45120
2018-09-04T08:24:49.637Z,45088
2018-09-04T08:25:49.657Z,45728
2018-09-04T08:27:49.721Z,44288
2018-09-04T08:29:04.157Z,46656
2018-09-04T08:30:49.300Z,44704
2018-09-04T08:31:49.853Z,44608
2018-09-04T08:32:49.479Z,43872
2018-09-04T08:34:04.314Z,42528
2018-09-04T08:36:50.014Z,39872
2018-09-04T08:37:50.040Z,39968
2018-09-04T08:38:49.812Z,39584
2018-09-04T08:39:49.653Z,41056
2018-09-04T08:40:50.145Z,43072
2018-09-04T08:41:50.163Z,43168
2018-09-04T08:42:49.684Z,41664
2018-09-04T08:43:50.225Z,40160
2018-09-04T08:45:04.923Z,37664
2018-09-04T08:45:50.285Z,37760
2018-09-04T08:46:50.330Z,37504
2018-09-04T08:47:50.880Z,36992
2018-09-04T08:48:50.389Z,36928
2018-09-04T08:50:05.084Z,37088
2018-09-04T08:50:50.786Z,36928
2018-09-04T08:51:50.221Z,36096
2018-09-04T08:52:50.257Z,35392
2018-09-04T08:53:50.294Z,34496
2018-09-04T08:54:50.578Z,31552
2018-09-04T08:55:50.348Z,28768
2018-09-04T08:56:50.378Z,27744
2018-09-04T08:57:50.414Z,26080
2018-09-04T08:58:51.143Z,24864
2018-09-04T08:59:50.475Z,23616
2018-09-04T09:01:05.422Z,22368
2018-09-04T09:02:05.455Z,21856
2018-09-04T09:02:50.823Z,21568
2018-09-04T09:03:51.209Z,21408
2018-09-04T09:04:50.890Z,21280
2018-09-04T09:05:50.409Z,21184
2018-09-04T09:06:50.693Z,20736
2018-09-04T09:08:05.648Z,20512
2018-09-04T09:08:51.021Z,20544
2018-09-04T09:09:50.796Z,20288
2018-09-04T09:10:51.079Z,20288
2018-09-04T09:11:51.110Z,20032
2018-09-04T09:12:51.141Z,20032
2018-09-04T09:13:51.172Z,20000
2018-09-04T09:14:51.213Z,19648
2018-09-04T09:16:05.946Z,19584
2018-09-04T09:16:51.778Z,19552
2018-09-04T09:17:51.311Z,19392
2018-09-04T09:19:05.738Z,19328
2018-09-04T09:19:51.358Z,19136
2018-09-04T09:20:51.401Z,19008
2018-09-04T09:21:51.430Z,18912
2018-09-04T09:22:51.361Z,18784
2018-09-04T09:23:51.485Z,18624
2018-09-04T09:25:05.924Z,18592
2018-09-04T09:25:51.590Z,18592
2018-09-04T09:26:51.582Z,18496
2018-09-04T09:27:51.612Z,18336
2018-09-04T09:28:51.663Z,18208
2018-09-04T09:29:51.711Z,18048
2018-09-04T09:30:51.516Z,17920
2018-09-04T09:31:51.481Z,17728
2018-09-04T09:32:51.776Z,17324
2018-09-04T09:33:51.646Z,17180
2018-09-04T09:35:06.526Z,17200
2018-09-04T09:35:51.873Z,17056
2018-09-04T09:36:52.917Z,16928
2018-09-04T09:37:51.676Z,16816
2018-09-04T09:38:51.703Z,16676
2018-09-04T09:39:51.734Z,16672
2018-09-04T09:40:51.769Z,16528
2018-09-04T09:41:52.055Z,16532
2018-09-04T09:43:06.755Z,16452
2018-09-04T09:43:52.134Z,16360
2018-09-04T09:44:51.889Z,16328
2018-09-04T09:45:52.179Z,16304
2018-09-04T09:46:52.216Z,16292
2018-09-04T09:48:21.569Z,16164
2018-09-04T09:48:52.281Z,16124
2018-09-04T09:49:51.791Z,16080
2018-09-04T09:51:07.132Z,15876
2018-09-04T09:51:52.367Z,15896
2018-09-04T09:52:52.432Z,15868
2018-09-04T09:53:52.271Z,15796
2018-09-04T09:54:52.255Z,15720
2018-09-04T09:55:52.242Z,15748
2018-09-04T09:56:52.621Z,15728
2018-09-04T09:57:52.293Z,15652
2018-09-04T09:58:52.334Z,15556
2018-09-04T09:59:52.661Z,15476
2018-09-04T10:00:52.503Z,15436
2018-09-04T10:01:52.423Z,15464
2018-09-04T10:02:52.453Z,15316
2018-09-04T10:04:07.457Z,15176
2018-09-04T10:04:52.879Z,15116
2018-09-04T10:07:07.495Z,15056
2018-09-04T10:07:53.692Z,14940
2018-09-04T10:08:52.897Z,14868
2018-09-04T10:09:52.828Z,14928
2018-09-04T10:11:07.772Z,14784
2018-09-04T10:12:53.019Z,14752
2018-09-04T10:13:53.065Z,14744
2018-09-04T10:14:53.079Z,14700
2018-09-04T10:15:53.120Z,14620
2018-09-04T10:17:07.810Z,14600
2018-09-04T10:19:07.869Z,14524
2018-09-04T10:20:07.779Z,14536
2018-09-04T10:20:53.274Z,14496
2018-09-04T10:21:53.309Z,14452
2018-09-04T10:22:53.334Z,14400
2018-09-04T10:23:53.358Z,14308
2018-09-04T10:24:53.396Z,14300
2018-09-04T10:26:53.471Z,14212
2018-09-04T10:27:53.324Z,14180
2018-09-04T10:28:53.513Z,14316
2018-09-04T10:29:53.541Z,14488
2018-09-04T10:30:53.571Z,14644
2018-09-04T10:31:53.603Z,14824
2018-09-04T10:32:53.635Z,14948
2018-09-04T10:34:08.329Z,15240
2018-09-04T10:34:53.691Z,15328
2018-09-04T10:36:08.503Z,15456
2018-09-04T10:36:53.508Z,15580
2018-09-04T10:37:53.792Z,15540
2018-09-04T10:38:53.820Z,15488
2018-09-04T10:41:08.556Z,15452
2018-09-04T10:41:53.907Z,15364
2018-09-04T10:42:53.728Z,15304
2018-09-04T10:44:08.642Z,15300
2018-09-04T10:44:54.012Z,15336
2018-09-04T10:45:53.764Z,15288
2018-09-04T10:47:08.718Z,14960
2018-09-04T10:47:54.093Z,11480
2018-09-04T10:48:53.591Z,8572
2018-09-04T10:49:53.627Z,8264
2018-09-04T10:51:08.858Z,7912
2018-09-04T10:52:08.874Z,7692
2018-09-04T10:52:53.968Z,7564
2018-09-04T10:53:54.005Z,7532
2018-09-04T10:54:53.772Z,7768
2018-09-04T10:55:54.336Z,12092
2018-09-04T10:56:54.093Z,11720
2018-09-04T10:57:54.472Z,8940
2018-09-04T10:58:53.893Z,11488
2018-09-04T10:59:54.429Z,11316
2018-09-04T11:00:54.466Z,7472
2018-09-04T11:01:53.974Z,7320
2018-09-04T11:02:54.522Z,7532
2018-09-04T11:04:09.213Z,10240
2018-09-04T11:04:54.577Z,10024
2018-09-04T11:05:54.346Z,9792
2018-09-04T11:06:54.379Z,9512
2018-09-04T11:07:54.664Z,9132
2018-09-04T11:08:54.705Z,9012
2018-09-04T11:10:10.098Z,8884
2018-09-04T11:10:54.746Z,8824
2018-09-04T11:11:54.524Z,8732
2018-09-04T11:12:54.552Z,8624
2018-09-04T11:13:54.833Z,8616
2018-09-04T11:14:54.870Z,8716
2018-09-04T11:15:54.891Z,8732
2018-09-04T11:16:54.923Z,8780
2018-09-04T11:17:54.686Z,8792
2018-09-04T11:18:54.722Z,8820
2018-09-04T11:19:55.007Z,8600
2018-09-04T11:20:55.033Z,8596
2018-09-04T11:22:09.724Z,8628
2018-09-04T11:23:09.753Z,8680
2018-09-04T11:23:55.122Z,8828
2018-09-04T11:25:09.806Z,9100
2018-09-04T11:25:55.175Z,9188
2018-09-04T11:26:55.205Z,8928
2018-09-04T11:27:55.237Z,8704
2018-09-04T11:28:55.264Z,8524
2018-09-04T11:29:55.038Z,8408
2018-09-04T11:30:55.057Z,8436
2018-09-04T11:31:55.089Z,8548
2018-09-04T11:32:55.167Z,8532
2018-09-04T11:33:55.402Z,8500
2018-09-04T11:34:55.437Z,6784
2018-09-04T11:35:55.207Z,6720
2018-09-04T11:36:55.487Z,6704
2018-09-04T11:37:55.098Z,6736
2018-09-04T11:39:10.210Z,6732
2018-09-04T11:39:55.315Z,6776
2018-09-04T11:41:10.414Z,8076
2018-09-04T11:41:55.632Z,8092
2018-09-04T11:42:55.397Z,6372
2018-09-04T11:43:55.424Z,6168
2018-09-04T11:44:55.712Z,6064
2018-09-04T11:46:10.402Z,6020
2018-09-04T11:46:56.028Z,6068
2018-09-04T11:47:55.796Z,6204
2018-09-04T11:48:55.825Z,6320
2018-09-04T11:49:55.850Z,7472
2018-09-04T11:50:55.878Z,8192
2018-09-04T11:51:55.907Z,8136
2018-09-04T11:52:55.936Z,7964
2018-09-04T11:54:10.628Z,7364
2018-09-04T11:55:10.389Z,7516
2018-09-04T11:55:55.497Z,7652
2018-09-04T11:56:56.045Z,7684
2018-09-04T11:58:10.475Z,7712
2018-09-04T11:59:10.758Z,7684
2018-09-04T11:59:55.876Z,7616
2018-09-04T12:00:56.154Z,7572
2018-09-04T12:02:11.026Z,7556
2018-09-04T12:02:55.694Z,7584
2018-09-04T12:03:55.720Z,7568
2018-09-04T12:04:56.275Z,7552
2018-09-04T12:05:56.792Z,7580
2018-09-04T12:06:56.063Z,7540
2018-09-04T12:07:56.094Z,7464
2018-09-04T12:08:55.867Z,7412
2018-09-04T12:09:56.157Z,7388
2018-09-04T12:11:11.093Z,7340
2018-09-04T12:12:10.897Z,7220
2018-09-04T12:12:55.749Z,7188
2018-09-04T12:14:11.183Z,7156
2018-09-04T12:15:10.946Z,7116
2018-09-04T12:16:56.337Z,7100
2018-09-04T12:17:56.629Z,7080
2018-09-04T12:19:11.108Z,7016
2018-09-04T12:20:11.341Z,6996
2018-09-04T12:20:57.274Z,7020
2018-09-04T12:21:56.477Z,7012
2018-09-04T12:22:56.552Z,7012
2018-09-04T12:23:56.530Z,7016
2018-09-04T12:24:57.321Z,7124
2018-09-04T12:26:11.271Z,7252
2018-09-04T12:27:11.059Z,7288
2018-09-04T12:27:56.900Z,7288
2018-09-04T12:28:56.936Z,7332
2018-09-04T12:30:11.623Z,7352
2018-09-04T12:30:56.977Z,7428
2018-09-04T12:31:57.011Z,7652
2018-09-04T12:32:56.570Z,7804
2018-09-04T12:33:57.202Z,7960
2018-09-04T12:34:57.089Z,8052
2018-09-04T12:36:56.895Z,7952
2018-09-04T12:37:56.661Z,7900
2018-09-04T12:38:56.945Z,7900
2018-09-04T12:39:57.239Z,7796
2018-09-04T12:41:11.922Z,7752
2018-09-04T12:41:57.092Z,7804
2018-09-04T12:42:57.052Z,7816
2018-09-04T12:43:57.085Z,7816
2018-09-04T12:44:57.494Z,7796
2018-09-04T12:46:11.798Z,7576
2018-09-04T12:46:57.426Z,7444
2018-09-04T12:47:57.574Z,7344
2018-09-04T12:48:57.231Z,7324
2018-09-04T12:49:57.506Z,7256
2018-09-04T12:50:57.536Z,6728
2018-09-04T12:51:57.608Z,7168
2018-09-04T12:52:57.588Z,7216
2018-09-04T12:53:57.615Z,7304
2018-09-04T12:54:57.720Z,7308
2018-09-04T12:55:57.683Z,5828
2018-09-04T12:57:12.370Z,5240
2018-09-04T12:58:57.755Z,7524
2018-09-04T12:59:57.695Z,7468
2018-09-04T13:00:57.814Z,7324
2018-09-04T13:01:57.838Z,7264
2018-09-04T13:02:57.867Z,7240
2018-09-04T13:04:57.424Z,7256
2018-09-04T13:05:57.785Z,7280
2018-09-04T13:06:57.974Z,7344
2018-09-04T13:07:58.002Z,7364
2018-09-04T13:08:57.912Z,7352
2018-09-04T13:09:58.055Z,7368
2018-09-04T13:10:57.848Z,7364
2018-09-04T13:11:58.113Z,7344
2018-09-04T13:12:57.622Z,7348
2018-09-04T13:14:58.197Z,7468
2018-09-04T13:15:58.231Z,7668
2018-09-04T13:16:58.264Z,7872
2018-09-04T13:17:58.284Z,8104
2018-09-04T13:18:58.307Z,8352
2018-09-04T13:19:58.076Z,8484
2018-09-04T13:20:58.104Z,8536
2018-09-04T13:21:58.743Z,8604
2018-09-04T13:22:58.154Z,8716
2018-09-04T13:24:12.845Z,9028
2018-09-04T13:24:58.467Z,9212
2018-09-04T13:25:58.498Z,9228
2018-09-04T13:26:58.269Z,8312
2018-09-04T13:27:58.034Z,7260
2018-09-04T13:28:58.579Z,6516
2018-09-04T13:30:13.264Z,6328
2018-09-04T13:30:58.632Z,6212
2018-09-04T13:31:58.668Z,7028
2018-09-04T13:32:58.436Z,8136
2018-09-04T13:33:58.493Z,8068
2018-09-04T13:35:13.152Z,7792
2018-09-04T13:36:13.436Z,7608
2018-09-04T13:37:58.572Z,7304
2018-09-04T13:38:58.854Z,7132
2018-09-04T13:39:58.621Z,6952
2018-09-04T13:40:58.648Z,6800
2018-09-04T13:41:58.681Z,6680
2018-09-04T13:42:58.978Z,6612
2018-09-04T13:43:58.990Z,6520
2018-09-04T13:44:58.758Z,6512
2018-09-04T13:46:13.707Z,6504
2018-09-04T13:46:58.813Z,6496
2018-09-04T13:47:58.854Z,6496
2018-09-04T13:49:58.900Z,6412
2018-09-04T13:50:58.925Z,6392
2018-09-04T13:51:58.954Z,6428
2018-09-04T13:52:59.242Z,6444
2018-09-04T13:54:13.928Z,6476
2018-09-04T13:54:59.032Z,6468
2018-09-04T13:55:59.320Z,6468
2018-09-04T13:56:59.525Z,6492
2018-09-04T13:57:58.861Z,6540
2018-09-04T13:58:59.142Z,6460
2018-09-04T13:59:59.430Z,5336
2018-09-04T14:01:14.116Z,6540
2018-09-04T14:02:14.144Z,6532
2018-09-04T14:02:59.250Z,6464
2018-09-04T14:04:59.568Z,6516
2018-09-04T14:05:59.588Z,6596
2018-09-04T14:06:59.622Z,6624
2018-09-04T14:07:59.389Z,6572
2018-09-04T14:08:59.415Z,6516
2018-09-04T14:09:59.698Z,6504
2018-09-04T14:11:14.502Z,6560